Mount Laguna, CA

11:47 AM PDT on August 21, 2014 (GMT -0700)
Brown Municipal | Change Station
CLOSE
Current Station
Airport
Location: San Diego Brown,
Elevation: 525 ft
Nearby Weather Stations
Active Advisory: Areal Flood Advisory Active Notice: Record Report

Elev 525 ft 32.57 °N, 116.98 °W | Updated 54 minutes ago

Clear
Clear
77 °F
Feels Like 77 °F
N
8
Wind Variable Wind from West

Today
High -- | Low -- °F
--% Chance of Precip.
Yesterday
High -- | Low -- °F
Precip. -- in
6:13 AM 7:23 PM
Waning Crescent, 13% visible
Pressure 29.95 in
Visibility 10.0 miles
Clouds Clear
Dew Point 64 °F
Humidity 64%
Rainfall 0.00 in
Snow Depth Not available.
UV 9 out of 12
Pollen 4.80 out of 12
Air Quality Not available.
Flu Activity Not available.
METAR KSDM 211753Z 28007KT 10SM CLR 25/18 A2996 RMK AO2 SLP140 T02500178 10256 20194 50003

More Conditions Fewer Conditions

Pressure 29.95 in
Visibility 10.0 miles
Clouds Clear
Dew Point 64 °F
Humidity 64%
Rainfall 0.00 in
Snow Depth Not available.
UV 9 out of 12
Pollen 4.80 out of 12
Air Quality Not available.
Flu Activity Not available.
METAR KSDM 211753Z 28007KT 10SM CLR 25/18 A2996 RMK AO2 SLP140 T02500178 10256 20194 50003

More Conditions Fewer Conditions

10-Day Weather Forecast

Almanac

Astronomy

Aug. 21, 2014 Rise Set
Actual Time 6:13 AM PDT 7:23 PM PDT
Civil Twilight 5:47 AM PDT 7:49 PM PDT
Nautical Twilight 5:16 AM PDT 8:20 PM PDT
Astronomical Twilight 4:45 AM PDT 8:51 PM PDT
Moon 2:52 AM PDT 4:51 PM PDT
Length of Visible Light 14h 02m
Length of Day
13h 10m
Tomorrow will be 1m 51s shorter.
Waning Crescent, 13% of the Moon is Illuminated
Today
Waning Crescent
Aug 25
New
Sep 2
First Quarter
Sep 8
Full
Sep 15
Last Quarter

Today's Extremes

State Highs State Lows

Community

WunderPhotos

Upload Photos

1,745,996 photos uploaded!

WunderBlogs® & News

Nearby

Snow Depth

Station Depth Elevation
Echo Peak 0 in 7800 ft
Fallen Leaf 0 in 6300 ft
CSS Lab 0 in 6900 ft
Adin Mountain 0 in 6200 ft
Cedar Pass 0 in 7100 ft

Earthquake Activity

City Distance Mag. Time & Date
Yucca Valley, California 98 miles 3.8 8:57 PM PDT
2014-08-14
Alberto Oviedo Mota, Mexico 89 miles 2.8 3:03 PM PDT
2014-08-14
Minimum magnitude displayed is 2.5.

Coastal Water Temperatures

Place Temperature
No Stations Reporting

Nearby Weather Stations